R.l. Enterkin — WDD9628 — position and weather

sailwx.info

Track history (hours):
 
Tides and Currents Weather Stations Pressure Air Temp Water Temp Dewpoint Dewpoint Depression Visibility Wind Speed Wind Dir Waves Ship Positions

R.l. Enterkin

Owner: Great Lakes Dredge & Dock Company, LLC., Oak Brook, IL. More information available from US FCC via Universal Licensing System and Coast Guard Vessel Documentation Center.

Last reported at 2016-Feb-07 00:09 UTC. Time now 2016-Feb-07 01:13 UTC.
Position N 39°12' W 074°39'.

MMSI: 367314080.

Date/timePositionNaut miles runAvg speedWind from/ knotsBaromVisibWave heightAir tempDewpointWater temp
2016-Feb-07 00:09N 39°12' W 074°39'0 0.0
2016-Feb-06 14:27N 39°12' W 074°39'  
2016-Feb-03 09:30N 39°19' W 074°32'0 0.0
2016-Feb-03 00:30N 39°19' W 074°32'8 0.8
2016-Feb-02 13:32N 39°12' W 074°38'0 0.0
2016-Feb-02 12:32N 39°12' W 074°38'0 0.0
2016-Feb-02 11:19N 39°12' W 074°38'0 0.0
2016-Feb-02 10:29N 39°12' W 074°38'0 0.0
2016-Feb-02 09:32N 39°12' W 074°38'0 0.0
2016-Feb-02 08:31N 39°12' W 074°38'0 0.0
2016-Feb-02 07:33N 39°12' W 074°38'0 0.0
2016-Feb-02 06:20N 39°12' W 074°38'0 0.0
2016-Feb-02 05:31N 39°12' W 074°38'0 0.0
2016-Feb-02 04:33N 39°12' W 074°38'0 0.0
2016-Feb-02 00:22N 39°12' W 074°38'0 0.0
2016-Jan-31 16:17N 39°12' W 074°38'0 0.3
2016-Jan-31 15:31N 39°12' W 074°38'0 0.2
2016-Jan-31 14:33N 39°12' W 074°38'0 0.2
2016-Jan-31 13:32N 39°12' W 074°38'1 0.0
2016-Jan-29 14:18N 39°11' W 074°39'1 0.9
2016-Jan-29 13:29N 39°12' W 074°38'0 0.0
2016-Jan-29 06:32N 39°12' W 074°38'0 0.0
2016-Jan-29 05:07N 39°12' W 074°38'0 0.0
2016-Jan-29 04:33N 39°12' W 074°38'0 0.4
2016-Jan-29 03:33N 39°12' W 074°38'0 0.4
2016-Jan-29 02:32N 39°12' W 074°38'0 0.0
2016-Jan-29 00:23N 39°12' W 074°38'0 0.0
2016-Jan-28 23:11N 39°12' W 074°38'  
Track history (hours):
 
Tides and Currents Weather Stations Pressure Air Temp Water Temp Dewpoint Dewpoint Depression Visibility Wind Speed Wind Dir Waves Ship Positions

R.l. Enterkin

Owner: Great Lakes Dredge & Dock Company, LLC., Oak Brook, IL. More information available from US FCC via Universal Licensing System and Coast Guard Vessel Documentation Center.

Last reported at 2016-Feb-07 00:09 UTC. Time now 2016-Feb-07 01:13 UTC.
Position N 39°12' W 074°39'.

MMSI: 367314080.

Date/timePositionNaut miles runAvg speedWind from/ knotsBaromVisibWave heightAir tempDewpointWater temp
2016-Feb-07 00:09N 39°12' W 074°39'0 0.0
2016-Feb-06 14:27N 39°12' W 074°39'  
2016-Feb-03 09:30N 39°19' W 074°32'0 0.0
2016-Feb-03 00:30N 39°19' W 074°32'8 0.8
2016-Feb-02 13:32N 39°12' W 074°38'0 0.0
2016-Feb-02 12:32N 39°12' W 074°38'0 0.0
2016-Feb-02 11:19N 39°12' W 074°38'0 0.0
2016-Feb-02 10:29N 39°12' W 074°38'0 0.0
2016-Feb-02 09:32N 39°12' W 074°38'0 0.0
2016-Feb-02 08:31N 39°12' W 074°38'0 0.0
2016-Feb-02 07:33N 39°12' W 074°38'0 0.0
2016-Feb-02 06:20N 39°12' W 074°38'0 0.0
2016-Feb-02 05:31N 39°12' W 074°38'0 0.0
2016-Feb-02 04:33N 39°12' W 074°38'0 0.0
2016-Feb-02 00:22N 39°12' W 074°38'0 0.0
2016-Jan-31 16:17N 39°12' W 074°38'0 0.3
2016-Jan-31 15:31N 39°12' W 074°38'0 0.2
2016-Jan-31 14:33N 39°12' W 074°38'0 0.2
2016-Jan-31 13:32N 39°12' W 074°38'1 0.0
2016-Jan-29 14:18N 39°11' W 074°39'1 0.9
2016-Jan-29 13:29N 39°12' W 074°38'0 0.0
2016-Jan-29 06:32N 39°12' W 074°38'0 0.0
2016-Jan-29 05:07N 39°12' W 074°38'0 0.0
2016-Jan-29 04:33N 39°12' W 074°38'0 0.4
2016-Jan-29 03:33N 39°12' W 074°38'0 0.4
2016-Jan-29 02:32N 39°12' W 074°38'0 0.0
2016-Jan-29 00:23N 39°12' W 074°38'0 0.0
2016-Jan-28 23:11N 39°12' W 074°38'  

Dump ship's entire track history